sensor_id;sensor_type;location;lat;lon;timestamp;pressure;altitude;pressure_sealevel;temperature;humidity
21828;BME280;11076;47.942;11.804;2023-04-01T00:04:24;93161.44;;;6.28;98.07
21828;BME280;11076;47.942;11.804;2023-04-01T00:09:27;93168.66;;;6.21;99.68
21828;BME280;11076;47.942;11.804;2023-04-01T00:14:29;93166.78;;;6.09;100.00
21828;BME280;11076;47.942;11.804;2023-04-01T00:19:32;93164.25;;;5.96;100.00
21828;BME280;11076;47.942;11.804;2023-04-01T00:24:35;93150.78;;;5.97;100.00
21828;BME280;11076;47.942;11.804;2023-04-01T00:29:37;93157.34;;;5.95;100.00
21828;BME280;11076;47.942;11.804;2023-04-01T00:34:40;93139.34;;;5.97;100.00
21828;BME280;11076;47.942;11.804;2023-04-01T00:39:43;93119.41;;;5.88;100.00
21828;BME280;11076;47.942;11.804;2023-04-01T00:44:54;93103.81;;;5.98;100.00
21828;BME280;11076;47.942;11.804;2023-04-01T00:49:57;93104.88;;;5.97;100.00
21828;BME280;11076;47.942;11.804;2023-04-01T00:55:01;93099.59;;;5.90;100.00
21828;BME280;11076;47.942;11.804;2023-04-01T01:00:10;93099.66;;;5.84;100.00
21828;BME280;11076;47.942;11.804;2023-04-01T01:05:21;93104.00;;;5.78;100.00
21828;BME280;11076;47.942;11.804;2023-04-01T01:10:34;93103.63;;;5.74;100.00
21828;BME280;11076;47.942;11.804;2023-04-01T01:36:57;93104.38;;;6.18;97.74
21828;BME280;11076;47.942;11.804;2023-04-01T01:42:05;93106.44;;;6.16;97.40
21828;BME280;11076;47.942;11.804;2023-04-01T01:47:09;93112.94;;;6.21;96.48
21828;BME280;11076;47.942;11.804;2023-04-01T01:52:13;93111.69;;;6.23;96.53
21828;BME280;11076;47.942;11.804;2023-04-01T01:57:17;93100.25;;;6.23;97.16
21828;BME280;11076;47.942;11.804;2023-04-01T02:02:25;93100.13;;;6.17;96.46
21828;BME280;11076;47.942;11.804;2023-04-01T02:07:32;93094.22;;;6.15;96.73
21828;BME280;11076;47.942;11.804;2023-04-01T02:12:38;93096.72;;;6.10;97.52
21828;BME280;11076;47.942;11.804;2023-04-01T02:17:43;93104.09;;;6.08;97.31
21828;BME280;11076;47.942;11.804;2023-04-01T02:22:50;93110.59;;;6.12;96.82
21828;BME280;11076;47.942;11.804;2023-04-01T02:27:54;93112.91;;;6.09;95.84
21828;BME280;11076;47.942;11.804;2023-04-01T02:32:59;93122.47;;;6.10;95.49
21828;BME280;11076;47.942;11.804;2023-04-01T02:38:02;93123.44;;;6.15;93.65
21828;BME280;11076;47.942;11.804;2023-04-01T02:43:05;93126.06;;;6.15;94.28
21828;BME280;11076;47.942;11.804;2023-04-01T02:48:08;93121.06;;;6.26;93.31
21828;BME280;11076;47.942;11.804;2023-04-01T02:53:10;93127.53;;;6.30;92.92
21828;BME280;11076;47.942;11.804;2023-04-01T02:58:13;93138.06;;;6.36;92.47
21828;BME280;11076;47.942;11.804;2023-04-01T03:03:16;93144.19;;;6.37;92.86
21828;BME280;11076;47.942;11.804;2023-04-01T03:08:18;93154.81;;;6.37;92.03
21828;BME280;11076;47.942;11.804;2023-04-01T03:13:21;93141.38;;;6.32;92.32
21828;BME280;11076;47.942;11.804;2023-04-01T03:18:23;93141.84;;;6.29;91.64
21828;BME280;11076;47.942;11.804;2023-04-01T03:23:26;93140.34;;;6.14;91.87
21828;BME280;11076;47.942;11.804;2023-04-01T03:28:29;93138.75;;;6.13;92.34
21828;BME280;11076;47.942;11.804;2023-04-01T03:33:32;93151.44;;;6.11;92.22
21828;BME280;11076;47.942;11.804;2023-04-01T03:38:35;93151.88;;;6.08;92.14
21828;BME280;11076;47.942;11.804;2023-04-01T03:43:37;93148.19;;;6.09;92.11
21828;BME280;11076;47.942;11.804;2023-04-01T03:48:39;93164.16;;;6.03;92.45
21828;BME280;11076;47.942;11.804;2023-04-01T03:53:42;93158.78;;;5.91;92.48
21828;BME280;11076;47.942;11.804;2023-04-01T03:58:44;93161.78;;;5.94;92.55
21828;BME280;11076;47.942;11.804;2023-04-01T04:03:48;93161.94;;;5.81;93.43
21828;BME280;11076;47.942;11.804;2023-04-01T04:08:52;93164.41;;;5.76;92.92
21828;BME280;11076;47.942;11.804;2023-04-01T04:13:55;93157.41;;;5.63;94.23
21828;BME280;11076;47.942;11.804;2023-04-01T04:18:57;93171.91;;;5.61;94.61
21828;BME280;11076;47.942;11.804;2023-04-01T04:24:01;93178.88;;;5.55;94.88
21828;BME280;11076;47.942;11.804;2023-04-01T04:29:19;93177.75;;;5.44;95.60
21828;BME280;11076;47.942;11.804;2023-04-01T04:34:22;93181.00;;;5.46;95.76
21828;BME280;11076;47.942;11.804;2023-04-01T04:39:25;93178.44;;;5.58;95.68
21828;BME280;11076;47.942;11.804;2023-04-01T04:44:27;93176.50;;;5.72;95.28
21828;BME280;11076;47.942;11.804;2023-04-01T04:49:30;93176.13;;;5.87;93.64
21828;BME280;11076;47.942;11.804;2023-04-01T04:54:33;93183.25;;;5.93;92.72
21828;BME280;11076;47.942;11.804;2023-04-01T04:59:37;93182.59;;;5.97;92.00
21828;BME280;11076;47.942;11.804;2023-04-01T05:04:45;93177.59;;;6.08;90.75
21828;BME280;11076;47.942;11.804;2023-04-01T05:09:47;93191.97;;;6.18;90.32
21828;BME280;11076;47.942;11.804;2023-04-01T05:14:50;93186.81;;;6.24;88.79
21828;BME280;11076;47.942;11.804;2023-04-01T05:19:52;93180.19;;;6.33;88.77
21828;BME280;11076;47.942;11.804;2023-04-01T05:24:55;93184.00;;;6.55;87.02
21828;BME280;11076;47.942;11.804;2023-04-01T05:29:58;93184.25;;;6.66;85.05
21828;BME280;11076;47.942;11.804;2023-04-01T05:35:14;93185.44;;;6.70;84.05
21828;BME280;11076;47.942;11.804;2023-04-01T05:40:17;93175.28;;;6.97;84.60
21828;BME280;11076;47.942;11.804;2023-04-01T05:45:20;93186.13;;;6.95;82.65
21828;BME280;11076;47.942;11.804;2023-04-01T05:50:41;93188.34;;;6.99;81.57
21828;BME280;11076;47.942;11.804;2023-04-01T05:55:45;93182.31;;;7.45;80.11
21828;BME280;11076;47.942;11.804;2023-04-01T06:00:48;93182.13;;;8.06;76.73
21828;BME280;11076;47.942;11.804;2023-04-01T06:05:57;93188.00;;;8.43;74.93
21828;BME280;11076;47.942;11.804;2023-04-01T06:21:33;93189.25;;;8.64;72.25
21828;BME280;11076;47.942;11.804;2023-04-01T06:27:05;93201.78;;;8.52;73.18
21828;BME280;11076;47.942;11.804;2023-04-01T06:32:31;93191.25;;;8.45;73.15
21828;BME280;11076;47.942;11.804;2023-04-01T06:54:17;93186.41;;;8.42;71.84
21828;BME280;11076;47.942;11.804;2023-04-01T06:59:45;93185.91;;;8.45;70.97
21828;BME280;11076;47.942;11.804;2023-04-01T07:04:50;93188.44;;;8.64;70.96
21828;BME280;11076;47.942;11.804;2023-04-01T07:09:56;93193.28;;;8.67;71.10
21828;BME280;11076;47.942;11.804;2023-04-01T07:15:16;93204.72;;;8.79;71.21
21828;BME280;11076;47.942;11.804;2023-04-01T07:20:30;93204.13;;;9.18;69.33
21828;BME280;11076;47.942;11.804;2023-04-01T07:25:41;93214.84;;;10.02;67.44
21828;BME280;11076;47.942;11.804;2023-04-01T07:41:58;93205.94;;;10.30;62.94
21828;BME280;11076;47.942;11.804;2023-04-01T07:47:33;93226.81;;;10.16;63.86
21828;BME280;11076;47.942;11.804;2023-04-01T07:53:03;93199.81;;;9.96;64.70
21828;BME280;11076;47.942;11.804;2023-04-01T08:14:52;93191.53;;;10.14;65.92
21828;BME280;11076;47.942;11.804;2023-04-01T08:20:36;93195.25;;;10.47;61.54
21828;BME280;11076;47.942;11.804;2023-04-01T08:25:44;93202.50;;;11.18;60.62
21828;BME280;11076;47.942;11.804;2023-04-01T08:36:17;93193.63;;;11.40;58.54
21828;BME280;11076;47.942;11.804;2023-04-01T08:47:20;93181.56;;;11.69;58.44
21828;BME280;11076;47.942;11.804;2023-04-01T09:14:59;93170.50;;;11.88;55.08
21828;BME280;11076;47.942;11.804;2023-04-01T09:25:34;93169.69;;;12.72;54.35
21828;BME280;11076;47.942;11.804;2023-04-01T09:31:00;93163.13;;;12.05;53.22
21828;BME280;11076;47.942;11.804;2023-04-01T09:36:18;93154.06;;;12.11;52.34
21828;BME280;11076;47.942;11.804;2023-04-01T09:41:45;93158.31;;;12.50;51.40
21828;BME280;11076;47.942;11.804;2023-04-01T10:52:55;93135.56;;;13.46;47.77
21828;BME280;11076;47.942;11.804;2023-04-01T11:21:19;93132.47;;;12.97;49.09
21828;BME280;11076;47.942;11.804;2023-04-01T11:37:37;93161.53;;;13.15;50.28
21828;BME280;11076;47.942;11.804;2023-04-01T11:43:38;93148.09;;;13.10;51.27
21828;BME280;11076;47.942;11.804;2023-04-01T11:54:49;93160.94;;;13.03;52.43
21828;BME280;11076;47.942;11.804;2023-04-01T12:00:14;93173.75;;;12.32;55.17
21828;BME280;11076;47.942;11.804;2023-04-01T12:10:56;93203.81;;;11.43;62.14
21828;BME280;11076;47.942;11.804;2023-04-01T12:21:36;93215.06;;;11.18;65.23
21828;BME280;11076;47.942;11.804;2023-04-01T12:26:47;93215.88;;;11.18;64.83
21828;BME280;11076;47.942;11.804;2023-04-01T13:20:33;93221.94;;;9.17;80.81
21828;BME280;11076;47.942;11.804;2023-04-01T13:30:53;93237.06;;;9.11;79.50
21828;BME280;11076;47.942;11.804;2023-04-01T13:41:47;93230.06;;;8.93;81.33
21828;BME280;11076;47.942;11.804;2023-04-01T13:52:03;93232.22;;;8.68;82.93
21828;BME280;11076;47.942;11.804;2023-04-01T14:18:56;93252.81;;;8.13;86.97
21828;BME280;11076;47.942;11.804;2023-04-01T14:24:20;93238.34;;;8.09;85.09
21828;BME280;11076;47.942;11.804;2023-04-01T14:35:11;93252.03;;;8.25;87.05
21828;BME280;11076;47.942;11.804;2023-04-01T14:50:43;93247.06;;;8.28;88.21
21828;BME280;11076;47.942;11.804;2023-04-01T15:17:55;93259.53;;;8.75;87.03
21828;BME280;11076;47.942;11.804;2023-04-01T15:23:26;93254.13;;;8.99;85.76
21828;BME280;11076;47.942;11.804;2023-04-01T15:34:07;93266.63;;;9.10;81.53
21828;BME280;11076;47.942;11.804;2023-04-01T15:39:20;93275.19;;;9.12;80.01
21828;BME280;11076;47.942;11.804;2023-04-01T15:50:24;93273.16;;;8.90;78.81
21828;BME280;11076;47.942;11.804;2023-04-01T16:11:28;93269.06;;;9.11;79.88
21828;BME280;11076;47.942;11.804;2023-04-01T16:22:23;93282.72;;;8.63;83.53
21828;BME280;11076;47.942;11.804;2023-04-01T16:32:40;93291.03;;;8.31;86.63
21828;BME280;11076;47.942;11.804;2023-04-01T16:47:57;93292.44;;;8.22;83.51
21828;BME280;11076;47.942;11.804;2023-04-01T16:58:41;93307.31;;;7.99;81.46
21828;BME280;11076;47.942;11.804;2023-04-01T17:03:46;93303.16;;;7.91;80.68
21828;BME280;11076;47.942;11.804;2023-04-01T17:09:02;93311.38;;;7.90;80.11
21828;BME280;11076;47.942;11.804;2023-04-01T17:14:28;93313.91;;;7.85;79.39
21828;BME280;11076;47.942;11.804;2023-04-01T17:35:43;93344.16;;;7.60;78.87
21828;BME280;11076;47.942;11.804;2023-04-01T17:41:22;93335.66;;;7.51;79.68
21828;BME280;11076;47.942;11.804;2023-04-01T17:46:30;93339.13;;;7.52;79.58
21828;BME280;11076;47.942;11.804;2023-04-01T17:51:45;93349.91;;;7.57;79.33
21828;BME280;11076;47.942;11.804;2023-04-01T18:07:48;93353.16;;;7.59;79.41
21828;BME280;11076;47.942;11.804;2023-04-01T18:18:50;93361.44;;;7.51;82.42
21828;BME280;11076;47.942;11.804;2023-04-01T18:24:23;93366.75;;;7.51;81.70
21828;BME280;11076;47.942;11.804;2023-04-01T18:35:00;93381.25;;;7.36;83.50
21828;BME280;11076;47.942;11.804;2023-04-01T18:40:27;93374.41;;;7.29;84.51
21828;BME280;11076;47.942;11.804;2023-04-01T18:45:38;93385.47;;;7.26;84.65
21828;BME280;11076;47.942;11.804;2023-04-01T18:51:08;93390.06;;;7.19;85.48
21828;BME280;11076;47.942;11.804;2023-04-01T18:56:29;93400.75;;;7.12;85.63
21828;BME280;11076;47.942;11.804;2023-04-01T19:01:40;93402.81;;;7.10;86.39
21828;BME280;11076;47.942;11.804;2023-04-01T19:06:50;93417.75;;;7.11;86.54
21828;BME280;11076;47.942;11.804;2023-04-01T19:28:01;93433.69;;;7.11;85.42
21828;BME280;11076;47.942;11.804;2023-04-01T19:33:37;93421.66;;;7.08;84.93
21828;BME280;11076;47.942;11.804;2023-04-01T20:00:48;93424.97;;;6.85;84.17
21828;BME280;11076;47.942;11.804;2023-04-01T20:16:59;93444.31;;;6.92;83.46
21828;BME280;11076;47.942;11.804;2023-04-01T20:22:16;93446.53;;;6.95;83.63
21828;BME280;11076;47.942;11.804;2023-04-01T20:27:27;93442.69;;;6.91;83.48
21828;BME280;11076;47.942;11.804;2023-04-01T20:43:40;93463.75;;;6.86;82.93
21828;BME280;11076;47.942;11.804;2023-04-01T20:54:29;93460.78;;;6.76;82.99
21828;BME280;11076;47.942;11.804;2023-04-01T21:15:50;93454.06;;;6.73;83.58
21828;BME280;11076;47.942;11.804;2023-04-01T22:08:45;93484.06;;;6.81;82.56
21828;BME280;11076;47.942;11.804;2023-04-01T22:13:59;93488.53;;;6.80;82.09
21828;BME280;11076;47.942;11.804;2023-04-01T22:24:50;93502.28;;;6.77;82.16
21828;BME280;11076;47.942;11.804;2023-04-01T22:30:06;93491.88;;;6.75;82.64
21828;BME280;11076;47.942;11.804;2023-04-01T22:35:23;93490.84;;;6.76;82.31
21828;BME280;11076;47.942;11.804;2023-04-01T22:40:42;93495.13;;;6.77;82.39
21828;BME280;11076;47.942;11.804;2023-04-01T22:56:26;93513.53;;;6.72;83.43
21828;BME280;11076;47.942;11.804;2023-04-01T23:01:34;93515.97;;;6.74;82.96
21828;BME280;11076;47.942;11.804;2023-04-01T23:06:44;93513.78;;;6.71;82.86
21828;BME280;11076;47.942;11.804;2023-04-01T23:11:53;93527.47;;;6.68;83.60
21828;BME280;11076;47.942;11.804;2023-04-01T23:22:21;93531.97;;;6.67;84.21
21828;BME280;11076;47.942;11.804;2023-04-01T23:27:43;93536.50;;;6.67;84.08
21828;BME280;11076;47.942;11.804;2023-04-01T23:32:48;93539.16;;;6.67;84.06
21828;BME280;11076;47.942;11.804;2023-04-01T23:37:50;93544.44;;;6.67;83.80
21828;BME280;11076;47.942;11.804;2023-04-01T23:42:52;93552.44;;;6.67;84.18
21828;BME280;11076;47.942;11.804;2023-04-01T23:47:55;93551.81;;;6.65;84.12
21828;BME280;11076;47.942;11.804;2023-04-01T23:53:03;93558.59;;;6.61;84.64
